Flight Track Log - Related Links

Times and Time Zones

All times are in EDT time to prevent confusion due to time zone crossing. See the DAL1562 flight status page for this flight to view local times or setup timezone preferences in your user account.

Time Position Orientation Groundspeed Altitude Reporting Facility
EDT Latitude Longitude Course Direction KTS MPH feet Rate Location/Type
Tue 04:43:19 PM 39.8667 -75.2667 245° Southwest 163 188 700  Level Philadelphia TRACON
Tue 04:43:36 PM 39.8583 -75.2894 245° Southwest 155 178 1,400 1,622 Climbing FAA TRACON SMA TRACON (SMA)
Tue 04:43:56 PM 39.8533 -75.3114 253° West 201 231 1,700 1,950 Climbing FAA TRACON SMA TRACON (SMA)
Tue 04:44:16 PM 39.8489 -75.3369 257° West 234 269 2,700 3,000 Climbing FAA TRACON SMA TRACON (SMA)
Tue 04:44:36 PM 39.8428 -75.3675 255° West 251 289 3,700 3,450 Climbing FAA TRACON SMA TRACON (SMA)
Tue 04:44:56 PM 39.8444 -75.3972 274° West 250 288 5,000 3,600 Climbing FAA TRACON SMA TRACON (SMA)
Tue 04:45:16 PM 39.8478 -75.4244 279° West 250 288 6,100 3,600 Climbing FAA TRACON SMA TRACON (SMA)
Tue 04:45:36 PM 39.8508 -75.4603 276° West 259 298 7,400 3,450 Climbing FAA TRACON SMA TRACON (SMA)
Tue 04:45:56 PM 39.8519 -75.4886 273° West 262 302 8,400 2,850 Climbing FAA TRACON SMA TRACON (SMA)
Tue 04:46:16 PM 39.8536 -75.5189 274° West 262 302 9,300 2,250 Climbing FAA TRACON SMA TRACON (SMA)
Tue 04:46:36 PM 39.8558 -75.5536 275° West 259 298 9,900 1,050 Climbing FAA TRACON SMA TRACON (SMA)
Tue 04:46:56 PM 39.8583 -75.5850 276° West 275 316 10,000 150 Climbing FAA TRACON SMA TRACON (SMA)
Tue 04:47:16 PM 39.8611 -75.6206 276° West 320 368 10,000 450 Level FAA TRACON SMA TRACON (SMA)
Tue 04:47:36 PM 39.8656 -75.6664 277° West 337 388 10,300 1,500 Climbing FAA TRACON SMA TRACON (SMA)
Tue 04:47:56 PM 39.8692 -75.7050 277° West 346 398 11,000 2,400 Climbing FAA TRACON SMA TRACON (SMA)
Tue 04:48:16 PM 39.8725 -75.7447 276° West 353 406 11,900 3,150 Climbing FAA TRACON SMA TRACON (SMA)
Tue 04:48:36 PM 39.8764 -75.7936 276° West 355 409 13,100 2,700 Climbing FAA TRACON SMA TRACON (SMA)
Tue 04:48:56 PM 39.8794 -75.8331 276° West 357 411 13,700 2,100 Climbing FAA TRACON SMA TRACON (SMA)
Tue 04:49:16 PM 39.8828 -75.8744 276° West 363 418 14,500 2,550 Climbing FAA TRACON SMA TRACON (SMA)
Tue 04:49:36 PM 39.8886 -75.9258 278° West 368 423 15,400 2,400 Climbing FAA TRACON SMA TRACON (SMA)
Tue 04:49:56 PM 39.8900 -75.9678 272° West 376 433 16,100 1,950 Climbing FAA TRACON SMA TRACON (SMA)
Tue 04:50:16 PM 39.8922 -76.0069 274° West 379 436 16,700 2,100 Climbing FAA TRACON SMA TRACON (SMA)
Tue 04:50:36 PM 39.8953 -76.0639 274° West 387 445 17,500 2,100 Climbing FAA TRACON SMA TRACON (SMA)
Tue 04:50:56 PM 39.8978 -76.1078 274° West 391 450 18,100 900 Climbing FAA TRACON SMA TRACON (SMA)
Tue 04:51:16 PM 39.8978 -76.1078 143° Southeast 391 450 18,100 1,818 Level FAA TRACON SMA TRACON (SMA)
Tue 04:53:41 PM 39.9225 -76.4933 275° West 412 474 23,100 1,893 Climbing New York Center
Tue 04:54:42 PM 39.9381 -76.6461 278° West 412 474 24,600 1,650 Climbing New York Center
Tue 04:55:41 PM 39.9514 -76.7961 277° West 412 474 26,400 2,067 Climbing New York Center
Tue 04:56:41 PM 39.9667 -76.9439 278° West 418 481 28,700 1,151 Climbing New York Center
Tue 05:00:33 PM 40.0133 -77.5172 276° West 410 472 32,000 678 Climbing Cleveland Center
Tue 05:01:33 PM 40.0275 -77.6631 277° West 416 479 32,000  Level Cleveland Center
Tue 05:02:33 PM 40.0375 -77.8036 275° West 416 479 32,000  Level Cleveland Center
Tue 05:03:33 PM 40.0511 -77.9467 277° West 416 479 32,000  Level Cleveland Center
Tue 05:04:33 PM 40.0628 -78.0875 276° West 416 479 32,000  Level Cleveland Center
Tue 05:05:33 PM 40.0742 -78.2281 276° West 410 472 32,000 -250 Level Cleveland Center
Tue 05:06:33 PM 40.0853 -78.3714 276° West 405 466 31,500 -700 Descending Cleveland Center
Tue 05:07:33 PM 40.0964 -78.5122 276° West 405 466 30,600 -750 Descending Cleveland Center
Tue 05:08:33 PM 40.1047 -78.6394 275° West 405 466 30,000 -300 Descending Cleveland Center
Tue 05:09:33 PM 40.1175 -78.7803 277° West 405 466 30,000  Level Cleveland Center
Tue 05:10:33 PM 40.1261 -78.9269 274° West 405 466 30,000  Level Cleveland Center
Tue 05:11:33 PM 40.1364 -79.0678 275° West 405 466 30,000  Level Cleveland Center
Tue 05:12:33 PM 40.1547 -79.2058 280° West 405 466 30,000  Level Cleveland Center
Tue 05:13:33 PM 40.2044 -79.3489 295° West 394 453 30,000  Level Cleveland Center
Tue 05:14:33 PM 40.2517 -79.4814 295° West 399 459 30,000  Level Cleveland Center
Tue 05:15:33 PM 40.2964 -79.6114 294° West 399 459 30,000  Level Cleveland Center
Tue 05:16:33 PM 40.3392 -79.7414 293° West 399 459 30,000  Level Cleveland Center
Tue 05:17:33 PM 40.3839 -79.8689 295° West 394 453 30,000  Level Cleveland Center
Tue 05:18:33 PM 40.4283 -79.9994 294° West 394 453 30,000  Level Cleveland Center
Tue 05:19:33 PM 40.4664 -80.1192 293° West 394 453 30,000  Level Cleveland Center
Tue 05:20:33 PM 40.5086 -80.2500 293° West 394 453 30,000  Level Cleveland Center
Tue 05:21:33 PM 40.5547 -80.3781 295° West 394 453 30,000  Level Cleveland Center
Tue 05:22:33 PM 40.6028 -80.5231 294° West 394 453 30,000  Level Cleveland Center
Tue 05:23:33 PM 40.6425 -80.6433 294° West 399 459 30,000  Level Cleveland Center
Tue 05:24:33 PM 40.6903 -80.7692 297° West 394 453 30,000  Level Cleveland Center
Tue 05:25:33 PM 40.7506 -80.8900 303° West 394 453 30,000  Level Cleveland Center
Tue 05:26:33 PM 40.8106 -81.0139 303° West 394 453 30,000  Level Cleveland Center
Tue 05:27:33 PM 40.8744 -81.1514 302° West 394 453 30,000  Level Cleveland Center
Tue 05:28:33 PM 40.9344 -81.2731 303° West 399 459 30,000  Level Cleveland Center
Tue 05:29:33 PM 40.9939 -81.3975 302° West 405 466 30,000  Level Cleveland Center
Tue 05:30:33 PM 41.0514 -81.5192 302° West 405 466 30,000  Level Cleveland Center
Tue 05:31:33 PM 41.1108 -81.6414 303° West 400 460 30,000 -50 Level Cleveland Center
Tue 05:32:33 PM 41.1661 -81.7497 304° West 400 460 29,900 -650 Descending Cleveland Center
Tue 05:33:33 PM 41.2253 -81.8725 303° West 395 455 28,700 -1,350 Descending Cleveland Center
Tue 05:34:33 PM 41.2842 -81.9978 302° West 395 455 27,200 -1,400 Descending Cleveland Center
Tue 05:35:33 PM 41.3428 -82.1319 300° West 401 461 25,900 -1,900 Descending Cleveland Center
Tue 05:36:33 PM 41.4181 -82.2639 307° West 408 470 23,400 -2,600 Descending Cleveland Center
Tue 05:37:33 PM 41.4853 -82.3764 309° West 403 464 20,700 -2,824 Descending Cleveland Center
Tue 05:38:15 PM 41.5361 -82.4556 311° West 388 447 18,600 -2,700 Descending Cleveland Center
Tue 05:38:33 PM 41.5503 -82.4839 304° West 384 442 18,000 -2,538 Descending Cleveland Center
Tue 05:39:33 PM 41.6131 -82.5883 309° West 371 427 15,300 -2,600 Descending Cleveland Center
Tue 05:40:33 PM 41.6717 -82.6875 308° West 359 413 12,800 -1,650 Descending Cleveland Center
Tue 05:41:33 PM 41.7242 -82.7783 308° West 334 384 12,000 -400 Descending Cleveland Center
Tue 05:42:33 PM 41.7792 -82.8469 317° Northwest 295 339 12,000 -700 Level Cleveland Center
Tue 05:43:33 PM 41.8428 -82.8994 328° Northwest 273 314 10,600 -1,500 Descending Cleveland Center
Tue 05:44:33 PM 41.8956 -82.9656 317° Northwest 266 306 9,000 -1,700 Descending Cleveland Center
Tue 05:45:33 PM 41.9103 -83.0581 282° West 243 280 7,200 -1,500 Descending Cleveland Center
Tue 05:46:33 PM 41.9147 -83.1475 274° West 243 280 6,000 -600 Descending Cleveland Center
Tue 05:47:33 PM 41.9128 -83.2283 268° West 243 280 6,000 -415 Level Cleveland Center
Tue 05:48:43 PM 41.9161 -83.3458 272° West 238 274 5,100 -818 Descending Cleveland Center
Tue 05:49:45 PM 41.9478 -83.4197 300° West 215 247 4,200 -488 Descending Cleveland Center
Tue 05:50:46 PM 41.9925 -83.4608 326° Northwest 214 246 4,100 -98 Descending Cleveland Center
Tue 05:51:47 PM 42.0514 -83.4494 North 210 242 4,000 -443 Descending Cleveland Center
Tue 05:52:48 PM 42.1064 -83.4183 23° Northeast 215 247 3,200 -1,078 Descending Cleveland Center
Tue 05:53:55 PM 42.1572 -83.3814 28° Northeast 164 189 1,700 -1,122 Descending Cleveland Center
Tue 05:54:51 PM 42.1892 -83.3578 29° Northeast 135 155 900 -857 Descending Cleveland Center
Tue 05:56:00 PM 42.2000 -83.3500 323° Northwest  Level FlightAware Approximate

Login

Don't have an account? Register now (free) for customized features, flight alerts, and more!